Time,TemperatureF,DewpointF,PressureIn,WindDirection,WindDirectionDegrees,WindSpeedMPH,WindSpeedGustMPH,Humidity,HourlyPrecipIn,Conditions,Clouds,dailyrainin,SoftwareType,DateUTC
2013-02-12 00:01:00,16.0,-2.0,-100.00,South,190,8.0,8.0,43,-99.99,,,-99.99,,2013-02-12 07:01:00,
2013-02-12 00:11:00,16.0,-3.0,-100.00,SSW,195,7.0,7.0,43,-99.99,,,-99.99,,2013-02-12 07:11:00,
2013-02-12 00:21:00,16.0,-2.0,-100.00,SW,215,10.0,11.0,44,-99.99,,,-99.99,,2013-02-12 07:21:00,
2013-02-12 00:31:00,16.0,-2.0,-100.00,SW,215,11.0,12.0,44,-99.99,,,-99.99,,2013-02-12 07:31:00,
2013-02-12 00:41:00,16.0,-2.0,-100.00,SW,215,12.0,13.0,44,-99.99,,,-99.99,,2013-02-12 07:41:00,
2013-02-12 00:51:00,16.0,-2.0,-100.00,SW,225,11.0,12.0,43,-99.99,,,-99.99,,2013-02-12 07:51:00,
2013-02-12 01:01:00,16.0,-2.0,-100.00,West,265,6.0,11.0,44,-99.99,,,-99.99,,2013-02-12 08:01:00,
2013-02-12 01:11:00,17.0,-1.0,-100.00,West,265,4.0,6.0,43,-99.99,,,-99.99,,2013-02-12 08:11:00,
2013-02-12 01:21:00,17.0,-2.0,-100.00,West,260,4.0,6.0,43,-99.99,,,-99.99,,2013-02-12 08:21:00,
2013-02-12 01:31:00,17.0,-2.0,-100.00,WSW,255,2.0,3.0,43,-99.99,,,-99.99,,2013-02-12 08:31:00,
2013-02-12 01:41:00,17.0,-2.0,-100.00,SW,220,7.0,9.0,42,-99.99,,,-99.99,,2013-02-12 08:41:00,
2013-02-12 01:52:00,16.0,-3.0,-100.00,SSW,205,8.0,11.0,42,-99.99,,,-99.99,,2013-02-12 08:52:00,
2013-02-12 02:01:00,14.0,-4.0,-100.00,SSW,195,7.0,9.0,43,-99.99,,,-99.99,,2013-02-12 09:01:00,
2013-02-12 02:11:00,13.0,-4.0,-100.00,SSE,155,6.0,7.0,45,-99.99,,,-99.99,,2013-02-12 09:11:00,
2013-02-12 02:21:00,13.0,-3.0,-100.00,SSE,165,7.0,7.0,46,-99.99,,,-99.99,,2013-02-12 09:21:00,
2013-02-12 02:31:00,13.0,-4.0,-100.00,SSE,160,6.0,7.0,46,-99.99,,,-99.99,,2013-02-12 09:31:00,
2013-02-12 02:41:00,16.0,-2.0,-100.00,SSE,165,6.0,9.0,44,-99.99,,,-99.99,,2013-02-12 09:41:00,
2013-02-12 02:51:00,16.0,-2.0,-100.00,South,180,7.0,9.0,43,-99.99,,,-99.99,,2013-02-12 09:51:00,
2013-02-12 03:01:00,12.0,-4.0,-100.00,South,180,11.0,11.0,46,-99.99,,,-99.99,,2013-02-12 10:01:00,
2013-02-12 03:11:00,11.0,-5.0,-100.00,South,190,13.0,14.0,47,-99.99,,,-99.99,,2013-02-12 10:11:00,
2013-02-12 03:21:00,12.0,-3.0,-100.00,South,190,14.0,15.0,48,-99.99,,,-99.99,,2013-02-12 10:21:00,
2013-02-12 03:31:00,16.0,-1.0,-100.00,South,185,12.0,15.0,46,-99.99,,,-99.99,,2013-02-12 10:31:00,
2013-02-12 03:43:00,15.0,-2.0,-100.00,South,180,11.0,13.0,46,-99.99,,,-99.99,,2013-02-12 10:43:00,
2013-02-12 03:51:00,13.0,-3.0,-100.00,SSW,200,11.0,14.0,47,-99.99,,,-99.99,,2013-02-12 10:51:00,
2013-02-12 04:01:00,14.0,-3.0,-100.00,SSW,205,12.0,12.0,47,-99.99,,,-99.99,,2013-02-12 11:01:00,
2013-02-12 04:11:00,16.0,-1.0,-100.00,SSW,205,9.0,12.0,44,-99.99,,,-99.99,,2013-02-12 11:11:00,
2013-02-12 04:21:00,15.0,-3.0,-100.00,SSW,195,9.0,9.0,43,-99.99,,,-99.99,,2013-02-12 11:21:00,
2013-02-12 04:31:00,18.0,-1.0,-100.00,SW,220,6.0,9.0,42,-99.99,,,-99.99,,2013-02-12 11:31:00,
2013-02-12 04:41:00,18.0,-2.0,-100.00,South,190,5.0,6.0,41,-99.99,,,-99.99,,2013-02-12 11:41:00,
2013-02-12 04:52:00,19.0,-2.0,-100.00,NNE,30,2.0,5.0,39,-99.99,,,-99.99,,2013-02-12 11:52:00,
2013-02-12 05:01:00,16.0,-3.0,-100.00,North,5,0.0,4.0,41,-99.99,,,-99.99,,2013-02-12 12:01:00,
2013-02-12 05:11:00,16.0,-3.0,-100.00,NNE,15,0.0,1.0,42,-99.99,,,-99.99,,2013-02-12 12:11:00,
2013-02-12 05:21:00,15.0,-3.0,-100.00,WNW,290,2.0,2.0,43,-99.99,,,-99.99,,2013-02-12 12:21:00,
2013-02-12 05:32:00,16.0,-2.0,-100.00,NW,320,3.0,4.0,43,-99.99,,,-99.99,,2013-02-12 12:32:00,
2013-02-12 05:41:00,15.0,-3.0,-100.00,West,275,2.0,4.0,43,-99.99,,,-99.99,,2013-02-12 12:41:00,
2013-02-12 05:52:00,16.0,-2.0,-100.00,NW,320,3.0,4.0,43,-99.99,,,-99.99,,2013-02-12 12:52:00,
2013-02-12 06:01:00,16.0,-2.0,-100.00,NE,50,0.0,2.0,43,-99.99,,,-99.99,,2013-02-12 13:01:00,
2013-02-12 06:11:00,17.0,-2.0,-100.00,NE,45,2.0,4.0,41,-99.99,,,-99.99,,2013-02-12 13:11:00,
2013-02-12 06:21:00,18.0,-2.0,-100.00,ESE,110,4.0,4.0,40,-99.99,,,-99.99,,2013-02-12 13:21:00,
2013-02-12 06:31:00,16.0,-5.0,-100.00,SE,140,6.0,6.0,39,-99.99,,,-99.99,,2013-02-12 13:31:00,
2013-02-12 06:41:00,13.0,-5.0,-100.00,SSE,155,6.0,7.0,42,-99.99,,,-99.99,,2013-02-12 13:41:00,
2013-02-12 06:51:00,14.0,-4.0,-100.00,South,170,4.0,6.0,43,-99.99,,,-99.99,,2013-02-12 13:51:00,
2013-02-12 07:01:00,15.0,-4.0,-100.00,South,170,4.0,5.0,43,-99.99,,,-99.99,,2013-02-12 14:01:00,
2013-02-12 07:11:00,14.0,-4.0,-100.00,South,180,7.0,8.0,43,-99.99,,,-99.99,,2013-02-12 14:11:00,
2013-02-12 07:21:00,16.0,-3.0,-100.00,South,180,7.0,8.0,42,-99.99,,,-99.99,,2013-02-12 14:21:00,
2013-02-12 07:31:00,16.0,-3.0,-100.00,South,175,6.0,7.0,41,-99.99,,,-99.99,,2013-02-12 14:31:00,
2013-02-12 07:41:00,16.0,-3.0,-100.00,South,180,4.0,6.0,41,-99.99,,,-99.99,,2013-02-12 14:41:00,
2013-02-12 07:52:00,15.0,-4.0,-100.00,SW,225,3.0,4.0,42,-99.99,,,-99.99,,2013-02-12 14:52:00,
2013-02-12 08:01:00,16.0,-3.0,-100.00,South,180,4.0,5.0,41,-99.99,,,-99.99,,2013-02-12 15:01:00,
2013-02-12 08:11:00,16.0,-3.0,-100.00,South,185,6.0,7.0,41,-99.99,,,-99.99,,2013-02-12 15:11:00,
2013-02-12 08:21:00,17.0,-3.0,-100.00,South,190,9.0,9.0,41,-99.99,,,-99.99,,2013-02-12 15:21:00,
2013-02-12 08:32:00,18.0,-2.0,-100.00,South,190,7.0,9.0,40,-99.99,,,-99.99,,2013-02-12 15:32:00,
2013-02-12 08:52:00,18.0,-1.0,-100.00,South,190,6.0,6.0,41,-99.99,,,-99.99,,2013-02-12 15:52:00,
2013-02-12 09:01:00,19.0,-1.0,-100.00,South,170,6.0,8.0,41,-99.99,,,-99.99,,2013-02-12 16:01:00,
2013-02-12 09:11:00,19.0,-1.0,-100.00,SSE,165,7.0,8.0,40,-99.99,,,-99.99,,2013-02-12 16:11:00,
2013-02-12 09:21:00,18.0,-1.0,-100.00,SSW,200,14.0,14.0,42,-99.99,,,-99.99,,2013-02-12 16:21:00,
2013-02-12 09:31:00,18.0,-1.0,-100.00,SSW,195,14.0,16.0,43,-99.99,,,-99.99,,2013-02-12 16:31:00,
2013-02-12 09:41:00,18.0,0.0,-100.00,SSW,210,13.0,15.0,44,-99.99,,,-99.99,,2013-02-12 16:41:00,
2013-02-12 09:51:00,20.0,1.0,-100.00,SSW,205,13.0,16.0,43,-99.99,,,-99.99,,2013-02-12 16:51:00,
2013-02-12 10:01:00,21.0,1.0,-100.00,SW,215,12.0,16.0,41,-99.99,,,-99.99,,2013-02-12 17:01:00,
2013-02-12 10:11:00,22.0,1.0,-100.00,SSW,195,11.0,15.0,39,-99.99,,,-99.99,,2013-02-12 17:11:00,
2013-02-12 10:21:00,23.0,2.0,-100.00,South,190,11.0,12.0,39,-99.99,,,-99.99,,2013-02-12 17:21:00,
2013-02-12 10:31:00,23.0,2.0,-100.00,SSW,205,10.0,13.0,38,-99.99,,,-99.99,,2013-02-12 17:31:00,
2013-02-12 10:41:00,23.0,1.0,-100.00,SSW,200,14.0,15.0,37,-99.99,,,-99.99,,2013-02-12 17:41:00,
2013-02-12 10:52:00,24.0,2.0,-100.00,SSW,195,12.0,14.0,37,-99.99,,,-99.99,,2013-02-12 17:52:00,
2013-02-12 11:01:00,24.0,2.0,-100.00,South,185,11.0,14.0,37,-99.99,,,-99.99,,2013-02-12 18:01:00,
2013-02-12 11:11:00,25.0,2.0,-100.00,SSW,195,13.0,15.0,36,-99.99,,,-99.99,,2013-02-12 18:11:00,
2013-02-12 11:22:00,25.0,2.0,-100.00,South,190,12.0,14.0,36,-99.99,,,-99.99,,2013-02-12 18:22:00,
2013-02-12 11:31:00,25.0,2.0,-100.00,South,190,11.0,14.0,35,-99.99,,,-99.99,,2013-02-12 18:31:00,
2013-02-12 11:41:00,25.0,2.0,-100.00,SSW,195,11.0,12.0,36,-99.99,,,-99.99,,2013-02-12 18:41:00,
2013-02-12 11:51:00,26.0,2.0,-100.00,SSW,195,12.0,14.0,35,-99.99,,,-99.99,,2013-02-12 18:51:00,
2013-02-12 12:01:00,26.0,2.0,-100.00,SSW,195,13.0,14.0,35,-99.99,,,-99.99,,2013-02-12 19:01:00,
2013-02-12 12:11:00,26.0,3.0,-100.00,SSW,195,14.0,17.0,35,-99.99,,,-99.99,,2013-02-12 19:11:00,
2013-02-12 12:21:00,26.0,2.0,-100.00,SSW,200,14.0,17.0,35,-99.99,,,-99.99,,2013-02-12 19:21:00,
2013-02-12 12:31:00,27.0,2.0,-100.00,SSW,205,15.0,17.0,34,-99.99,,,-99.99,,2013-02-12 19:31:00,
2013-02-12 12:41:00,27.0,3.0,-100.00,SSW,205,14.0,16.0,34,-99.99,,,-99.99,,2013-02-12 19:41:00,
2013-02-12 12:51:00,28.0,4.0,-100.00,SSW,205,12.0,14.0,35,-99.99,,,-99.99,,2013-02-12 19:51:00,
2013-02-12 13:01:00,28.0,4.0,-100.00,SSW,205,11.0,14.0,35,-99.99,,,-99.99,,2013-02-12 20:01:00,
2013-02-12 13:11:00,28.0,4.0,-100.00,SSW,205,10.0,14.0,35,-99.99,,,-99.99,,2013-02-12 20:11:00,
2013-02-12 13:21:00,29.0,5.0,-100.00,SSW,205,9.0,12.0,35,-99.99,,,-99.99,,2013-02-12 20:21:00,
2013-02-12 13:31:00,29.0,5.0,-100.00,South,190,11.0,12.0,34,-99.99,,,-99.99,,2013-02-12 20:31:00,
2013-02-12 13:41:00,29.0,5.0,-100.00,South,190,11.0,12.0,34,-99.99,,,-99.99,,2013-02-12 20:41:00,
2013-02-12 13:51:00,30.0,6.0,-100.00,South,185,9.0,11.0,34,-99.99,,,-99.99,,2013-02-12 20:51:00,
2013-02-12 14:01:00,31.0,5.0,-100.00,South,180,9.0,12.0,33,-99.99,,,-99.99,,2013-02-12 21:01:00,
2013-02-12 14:11:00,30.0,5.0,-100.00,South,190,11.0,13.0,33,-99.99,,,-99.99,,2013-02-12 21:11:00,
2013-02-12 14:21:00,31.0,6.0,-100.00,SSW,195,11.0,12.0,34,-99.99,,,-99.99,,2013-02-12 21:21:00,
2013-02-12 14:31:00,31.0,6.0,-100.00,SSW,195,10.0,12.0,33,-99.99,,,-99.99,,2013-02-12 21:31:00,
2013-02-12 14:41:00,31.0,6.0,-100.00,South,190,10.0,12.0,33,-99.99,,,-99.99,,2013-02-12 21:41:00,
2013-02-12 14:51:00,31.0,6.0,-100.00,South,190,11.0,14.0,34,-99.99,,,-99.99,,2013-02-12 21:51:00,
2013-02-12 15:01:00,31.0,6.0,-100.00,South,190,11.0,13.0,33,-99.99,,,-99.99,,2013-02-12 22:01:00,
2013-02-12 15:11:00,31.0,6.0,-100.00,South,190,10.0,13.0,33,-99.99,,,-99.99,,2013-02-12 22:11:00,
2013-02-12 15:21:00,32.0,7.0,-100.00,South,185,11.0,12.0,34,-99.99,,,-99.99,,2013-02-12 22:21:00,
2013-02-12 15:31:00,32.0,6.0,-100.00,SSW,200,9.0,11.0,33,-99.99,,,-99.99,,2013-02-12 22:31:00,
2013-02-12 15:41:00,32.0,7.0,-100.00,South,185,11.0,12.0,34,-99.99,,,-99.99,,2013-02-12 22:41:00,
2013-02-12 15:51:00,31.0,7.0,-100.00,SSW,195,9.0,12.0,34,-99.99,,,-99.99,,2013-02-12 22:51:00,
2013-02-12 16:01:00,31.0,7.0,-100.00,SSW,195,10.0,12.0,35,-99.99,,,-99.99,,2013-02-12 23:01:00,
2013-02-12 16:11:00,32.0,8.0,-100.00,SSW,210,6.0,10.0,35,-99.99,,,-99.99,,2013-02-12 23:11:00,
2013-02-12 16:21:00,33.0,8.0,-100.00,South,180,4.0,7.0,35,-99.99,,,-99.99,,2013-02-12 23:21:00,
2013-02-12 16:31:00,28.0,8.0,-100.00,SE,145,7.0,10.0,41,-99.99,,,-99.99,,2013-02-12 23:31:00,
2013-02-12 16:41:00,28.0,9.0,-100.00,SSE,155,9.0,12.0,45,-99.99,,,-99.99,,2013-02-12 23:41:00,
2013-02-12 16:52:00,27.0,9.0,-100.00,SE,145,11.0,12.0,45,-99.99,,,-99.99,,2013-02-12 23:52:00,
2013-02-12 17:02:00,26.0,9.0,-100.00,SSE,150,12.0,14.0,46,-99.99,,,-99.99,,2013-02-13 00:02:00,
2013-02-12 17:11:00,26.0,9.0,-100.00,SSE,160,7.0,13.0,48,-99.99,,,-99.99,,2013-02-13 00:11:00,
2013-02-12 17:21:00,24.0,9.0,-100.00,SE,145,12.0,12.0,50,-99.99,,,-99.99,,2013-02-13 00:21:00,
2013-02-12 17:32:00,24.0,8.0,-100.00,SE,140,12.0,13.0,51,-99.99,,,-99.99,,2013-02-13 00:32:00,
2013-02-12 17:41:00,23.0,8.0,-100.00,SSE,150,9.0,12.0,53,-99.99,,,-99.99,,2013-02-13 00:41:00,
2013-02-12 17:51:00,23.0,9.0,-100.00,SSE,160,11.0,11.0,52,-99.99,,,-99.99,,2013-02-13 00:51:00,
2013-02-12 18:01:00,23.0,8.0,-100.00,SE,130,12.0,12.0,52,-99.99,,,-99.99,,2013-02-13 01:01:00,
2013-02-12 18:11:00,23.0,8.0,-100.00,SE,140,9.0,13.0,53,-99.99,,,-99.99,,2013-02-13 01:11:00,
2013-02-12 18:21:00,23.0,8.0,-100.00,SSE,160,9.0,11.0,52,-99.99,,,-99.99,,2013-02-13 01:21:00,
2013-02-12 18:31:00,23.0,8.0,-100.00,SSE,160,10.0,12.0,52,-99.99,,,-99.99,,2013-02-13 01:31:00,
2013-02-12 18:42:00,22.0,8.0,-100.00,SE,140,9.0,10.0,52,-99.99,,,-99.99,,2013-02-13 01:42:00,
2013-02-12 18:51:00,23.0,8.0,-100.00,South,170,9.0,9.0,52,-99.99,,,-99.99,,2013-02-13 01:51:00,
2013-02-12 19:01:00,23.0,8.0,-100.00,SE,140,9.0,9.0,52,-99.99,,,-99.99,,2013-02-13 02:01:00,
2013-02-12 19:11:00,23.0,8.0,-100.00,SE,145,7.0,11.0,52,-99.99,,,-99.99,,2013-02-13 02:11:00,
2013-02-12 19:21:00,22.0,8.0,-100.00,SE,135,9.0,11.0,53,-99.99,,,-99.99,,2013-02-13 02:21:00,
2013-02-12 19:31:00,22.0,8.0,-100.00,SSE,160,5.0,11.0,53,-99.99,,,-99.99,,2013-02-13 02:31:00,
2013-02-12 19:41:00,22.0,8.0,-100.00,South,185,7.0,9.0,54,-99.99,,,-99.99,,2013-02-13 02:41:00,
2013-02-12 19:51:00,23.0,9.0,-100.00,SSE,155,2.0,9.0,52,-99.99,,,-99.99,,2013-02-13 02:51:00,
2013-02-12 20:01:00,26.0,9.0,-100.00,South,190,4.0,17.0,47,-99.99,,,-99.99,,2013-02-13 03:01:00,
2013-02-12 20:11:00,26.0,9.0,-100.00,NNW,330,3.0,17.0,48,-99.99,,,-99.99,,2013-02-13 03:11:00,
2013-02-12 20:21:00,24.0,8.0,-100.00,SW,220,5.0,9.0,51,-99.99,,,-99.99,,2013-02-13 03:21:00,
2013-02-12 20:31:00,25.0,9.0,-100.00,WSW,250,2.0,7.0,50,-99.99,,,-99.99,,2013-02-13 03:31:00,
2013-02-12 20:41:00,27.0,11.0,-100.00,West,270,6.0,9.0,49,-99.99,,,-99.99,,2013-02-13 03:41:00,
2013-02-12 20:51:00,30.0,12.0,-100.00,WNW,295,7.0,10.0,47,-99.99,,,-99.99,,2013-02-13 03:51:00,
2013-02-12 21:01:00,31.0,12.0,-100.00,WNW,295,9.0,10.0,44,-99.99,,,-99.99,,2013-02-13 04:01:00,
2013-02-12 21:11:00,26.0,9.0,-100.00,SSW,195,11.0,15.0,47,-99.99,,,-99.99,,2013-02-13 04:11:00,
2013-02-12 21:21:00,27.0,9.0,-100.00,SSW,200,6.0,8.0,46,-99.99,,,-99.99,,2013-02-13 04:21:00,
2013-02-12 21:31:00,22.0,6.0,-100.00,SSW,195,12.0,14.0,50,-99.99,,,-99.99,,2013-02-13 04:31:00,
2013-02-12 21:41:00,24.0,8.0,-100.00,SW,215,12.0,13.0,49,-99.99,,,-99.99,,2013-02-13 04:41:00,
2013-02-12 21:51:00,26.0,8.0,-100.00,SSW,210,16.0,17.0,47,-99.99,,,-99.99,,2013-02-13 04:51:00,
2013-02-12 22:01:00,25.0,7.0,-100.00,SSW,200,13.0,16.0,47,-99.99,,,-99.99,,2013-02-13 05:01:00,
2013-02-12 22:11:00,24.0,7.0,-100.00,SSW,200,16.0,17.0,47,-99.99,,,-99.99,,2013-02-13 05:11:00,
2013-02-12 22:21:00,26.0,8.0,-100.00,SSW,200,10.0,16.0,45,-99.99,,,-99.99,,2013-02-13 05:21:00,
2013-02-12 22:31:00,24.0,6.0,-100.00,SSW,200,12.0,14.0,45,-99.99,,,-99.99,,2013-02-13 05:31:00,
2013-02-12 22:41:00,25.0,6.0,-100.00,South,190,13.0,16.0,45,-99.99,,,-99.99,,2013-02-13 05:41:00,
2013-02-12 22:51:00,24.0,6.0,-100.00,South,190,13.0,14.0,46,-99.99,,,-99.99,,2013-02-13 05:51:00,
2013-02-12 23:01:00,24.0,6.0,-100.00,South,185,11.0,12.0,46,-99.99,,,-99.99,,2013-02-13 06:01:00,
2013-02-12 23:11:00,25.0,7.0,-100.00,South,175,8.0,13.0,45,-99.99,,,-99.99,,2013-02-13 06:11:00,
2013-02-12 23:21:00,26.0,7.0,-100.00,SSE,150,4.0,6.0,44,-99.99,,,-99.99,,2013-02-13 06:21:00,
2013-02-12 23:31:00,26.0,7.0,-100.00,South,190,6.0,12.0,43,-99.99,,,-99.99,,2013-02-13 06:31:00,
2013-02-12 23:41:00,27.0,8.0,-100.00,SE,135,4.0,7.0,43,-99.99,,,-99.99,,2013-02-13 06:41:00,
2013-02-12 23:51:00,28.0,8.0,-100.00,East,80,6.0,11.0,43,-99.99,,,-99.99,,2013-02-13 06:51:00,